Time;durP1;ratioP1;P1;durP2;ratioP2;P2;SDS_P1;SDS_P2;PMS_P1;PMS_P2;Temp;Humidity;BMP_temperature;BMP_pressure;BME280_temperature;BME280_humidity;BME280_pressure;Samples;Min_cycle;Max_cycle;Signal;HPM_P1;HPM_P2
2023/09/11 00:01:48;;;;;;;4.30;3.70;;;23.90;96.70;;;;;;5108208;28;20044;-77
2023/09/11 00:04:16;;;;;;;3.88;3.42;;;23.80;96.70;;;;;;5106770;28;20044;-77
2023/09/11 00:06:44;;;;;;;4.13;3.72;;;23.80;96.70;;;;;;5091843;28;21385;-76
2023/09/11 00:09:12;;;;;;;3.83;3.42;;;23.90;96.70;;;;;;5107730;28;20458;-77
2023/09/11 00:11:42;;;;;;;4.57;3.50;;;23.70;96.70;;;;;;5072679;28;20105;-77
2023/09/11 00:14:10;;;;;;;7.18;3.55;;;23.70;96.70;;;;;;5107938;28;20179;-77
2023/09/11 00:16:39;;;;;;;4.10;3.20;;;23.50;96.70;;;;;;5107814;28;20435;-76
2023/09/11 00:19:09;;;;;;;5.25;3.30;;;23.60;96.70;;;;;;5089749;28;20074;-77
2023/09/11 00:21:37;;;;;;;3.60;2.95;;;23.50;96.70;;;;;;5107351;28;20127;-76
2023/09/11 00:24:05;;;;;;;6.57;3.50;;;23.50;96.70;;;;;;5107222;28;20102;-77
2023/09/11 00:26:33;;;;;;;3.80;3.13;;;23.50;96.70;;;;;;5107248;28;20131;-77
2023/09/11 00:29:03;;;;;;;4.20;3.40;;;23.40;96.70;;;;;;5107287;28;20069;-76
2023/09/11 00:31:31;;;;;;;3.85;3.42;;;23.40;96.70;;;;;;5089547;28;20096;-77
2023/09/11 00:33:59;;;;;;;4.57;3.45;;;23.30;96.70;;;;;;5106788;28;20044;-76
2023/09/11 00:36:27;;;;;;;4.07;3.45;;;23.20;96.70;;;;;;5084975;28;20039;-77
2023/09/11 00:38:55;;;;;;;3.35;3.05;;;23.20;96.70;;;;;;5088898;28;20046;-77
2023/09/11 00:41:23;;;;;;;5.15;3.47;;;23.20;96.70;;;;;;5089232;28;20044;-77
2023/09/11 00:43:51;;;;;;;4.30;3.47;;;23.20;96.70;;;;;;5088598;28;20043;-77
2023/09/11 00:46:20;;;;;;;5.50;3.75;;;23.10;96.70;;;;;;5107149;28;20122;-76
2023/09/11 00:48:53;;;;;;;4.55;3.67;;;23.20;96.70;;;;;;5088637;28;20052;-76
2023/09/11 00:51:21;;;;;;;3.95;3.50;;;23.10;96.70;;;;;;5088737;28;20040;-77
2023/09/11 00:53:50;;;;;;;5.22;3.53;;;23.10;96.70;;;;;;5107044;28;20040;-77
2023/09/11 00:56:18;;;;;;;4.22;3.42;;;23.20;96.70;;;;;;5106760;28;20047;-76
2023/09/11 00:58:47;;;;;;;6.10;3.38;;;23.10;96.70;;;;;;5088110;28;20054;-76
2023/09/11 01:01:15;;;;;;;5.40;3.40;;;23.00;96.70;;;;;;5102227;28;20059;-77
2023/09/11 01:03:46;;;;;;;3.67;3.05;;;23.00;96.70;;;;;;5071405;28;20075;-77
2023/09/11 01:06:14;;;;;;;4.38;3.33;;;23.00;96.70;;;;;;5088414;28;20403;-76
2023/09/11 01:08:42;;;;;;;3.90;3.50;;;23.00;96.70;;;;;;5081280;28;20043;-77
2023/09/11 01:11:10;;;;;;;6.40;3.63;;;22.90;96.70;;;;;;5092172;28;20540;-77
2023/09/11 01:13:39;;;;;;;8.20;3.97;;;22.80;96.70;;;;;;5068171;28;20131;-77
2023/09/11 01:16:13;;;;;;;6.18;3.55;;;22.70;96.70;;;;;;5087304;28;20067;-77
2023/09/11 01:18:51;;;;;;;9.27;3.63;;;22.70;96.70;;;;;;5088031;28;20055;-77
2023/09/11 01:21:46;;;;;;;4.75;3.38;;;22.80;96.70;;;;;;5088375;28;20054;-76
2023/09/11 01:24:50;;;;;;;4.40;3.17;;;22.80;96.70;;;;;;5105974;28;20043;-77
2023/09/11 01:27:54;;;;;;;5.60;3.33;;;22.60;96.70;;;;;;5061795;28;20182;-77
2023/09/11 01:30:26;;;;;;;7.53;3.42;;;22.50;96.70;;;;;;5011098;28;20049;-76
2023/09/11 01:32:54;;;;;;;3.72;3.30;;;22.50;96.70;;;;;;5044831;28;20223;-77
2023/09/11 01:35:23;;;;;;;5.25;3.30;;;22.50;96.70;;;;;;5042780;28;20052;-77
2023/09/11 01:37:51;;;;;;;4.70;3.50;;;22.40;96.70;;;;;;5042722;28;20072;-77
2023/09/11 01:40:21;;;;;;;3.67;3.13;;;22.30;96.70;;;;;;5037471;28;20037;-77
2023/09/11 01:42:52;;;;;;;5.25;3.40;;;22.40;96.70;;;;;;5027597;28;20099;-77
2023/09/11 01:45:23;;;;;;;5.05;3.75;;;22.40;96.70;;;;;;5060193;28;20054;-77
2023/09/11 01:47:53;;;;;;;4.32;3.40;;;22.40;96.70;;;;;;5105566;28;20044;-77
2023/09/11 01:50:23;;;;;;;4.05;3.40;;;22.40;96.70;;;;;;5087922;28;20036;-77
2023/09/11 01:52:51;;;;;;;4.90;3.47;;;22.40;96.70;;;;;;5087392;28;20146;-77
2023/09/11 01:55:20;;;;;;;5.65;3.67;;;22.40;96.70;;;;;;5070520;28;20039;-76
2023/09/11 01:57:49;;;;;;;3.92;3.63;;;22.50;96.70;;;;;;5087547;28;20078;-77
2023/09/11 02:00:18;;;;;;;5.22;3.50;;;22.40;96.70;;;;;;5071477;28;20039;-77
2023/09/11 02:02:51;;;;;;;4.43;3.58;;;22.40;96.70;;;;;;5087802;28;20043;-77
2023/09/11 02:05:20;;;;;;;4.57;3.72;;;22.40;96.70;;;;;;5105039;28;20044;-76
2023/09/11 02:07:48;;;;;;;7.07;4.07;;;22.40;96.70;;;;;;5086879;28;20043;-76
2023/09/11 02:10:17;;;;;;;7.38;4.35;;;22.30;96.70;;;;;;5070621;28;20055;-77
2023/09/11 02:12:46;;;;;;;5.63;3.70;;;22.30;96.70;;;;;;5070574;28;20054;-77
2023/09/11 02:15:15;;;;;;;5.20;4.25;;;22.20;96.70;;;;;;5099868;28;20074;-76
2023/09/11 02:17:43;;;;;;;5.72;4.15;;;22.30;96.70;;;;;;5087657;28;20126;-77
2023/09/11 02:20:13;;;;;;;6.10;4.20;;;22.30;96.70;;;;;;5095316;28;20150;-77
2023/09/11 02:22:41;;;;;;;5.65;4.15;;;22.30;96.70;;;;;;5086853;28;20046;-77
2023/09/11 02:25:09;;;;;;;5.47;3.85;;;22.20;96.70;;;;;;5069985;28;20051;-76
2023/09/11 02:27:38;;;;;;;4.63;3.88;;;22.30;96.70;;;;;;5086368;28;20068;-76
2023/09/11 02:30:07;;;;;;;6.00;3.72;;;22.20;96.70;;;;;;5070263;28;20124;-77
2023/09/11 02:32:35;;;;;;;6.03;4.28;;;22.20;96.70;;;;;;5105050;28;20969;-77
2023/09/11 02:35:05;;;;;;;5.03;3.65;;;22.10;96.70;;;;;;5066524;28;20536;-77
2023/09/11 02:37:34;;;;;;;5.95;4.15;;;22.20;96.70;;;;;;5085311;28;20127;-77
2023/09/11 02:40:04;;;;;;;5.57;4.50;;;22.30;96.70;;;;;;5083425;28;20048;-76
2023/09/11 02:42:32;;;;;;;4.25;3.45;;;22.20;96.70;;;;;;5080761;28;20418;-77
2023/09/11 02:45:01;;;;;;;6.95;4.18;;;22.10;96.70;;;;;;5082112;28;20095;-77
2023/09/11 02:47:29;;;;;;;6.63;4.00;;;22.00;96.70;;;;;;5083182;28;20059;-77
2023/09/11 02:49:57;;;;;;;6.25;4.18;;;21.70;96.70;;;;;;5085465;28;20052;-77
2023/09/11 02:52:25;;;;;;;5.90;4.07;;;21.80;96.70;;;;;;5066897;28;20048;-78
2023/09/11 02:54:56;;;;;;;5.88;4.28;;;21.80;96.70;;;;;;5083183;28;20093;-77
2023/09/11 02:57:24;;;;;;;7.05;4.35;;;21.80;96.70;;;;;;5083406;28;20960;-79
2023/09/11 02:59:55;;;;;;;5.03;3.90;;;21.80;96.70;;;;;;5082544;28;20436;-77
2023/09/11 03:02:23;;;;;;;4.47;4.07;;;21.80;96.70;;;;;;5083207;28;20104;-77
2023/09/11 03:04:52;;;;;;;6.60;4.47;;;21.70;96.70;;;;;;5066363;28;20044;-77
2023/09/11 03:07:20;;;;;;;5.50;4.15;;;21.70;96.70;;;;;;5066368;28;20044;-77
2023/09/11 03:09:49;;;;;;;4.40;4.00;;;21.70;96.70;;;;;;5083198;28;20040;-77
2023/09/11 03:12:19;;;;;;;5.85;3.88;;;21.70;96.70;;;;;;5066086;28;20144;-77
2023/09/11 03:14:51;;;;;;;6.38;4.07;;;21.60;96.70;;;;;;5074695;28;20448;-77
2023/09/11 03:17:19;;;;;;;6.10;4.50;;;21.50;96.70;;;;;;5066337;28;20139;-76
2023/09/11 03:19:47;;;;;;;5.75;4.10;;;21.60;96.70;;;;;;5083146;28;20071;-76
2023/09/11 03:22:16;;;;;;;5.00;4.38;;;21.60;96.70;;;;;;5066482;28;20079;-77
2023/09/11 03:24:44;;;;;;;4.68;4.00;;;21.60;96.70;;;;;;5083105;28;20052;-77
2023/09/11 03:27:12;;;;;;;5.47;4.15;;;21.70;96.70;;;;;;5083046;28;20055;-77
2023/09/11 03:29:42;;;;;;;6.43;4.15;;;21.70;96.70;;;;;;5084165;28;20119;-77
2023/09/11 03:32:10;;;;;;;7.22;4.07;;;21.60;96.70;;;;;;5074589;28;20059;-77
2023/09/11 03:34:39;;;;;;;9.35;4.60;;;21.60;96.70;;;;;;5082481;28;20056;-77
2023/09/11 03:37:07;;;;;;;7.30;4.75;;;21.50;96.70;;;;;;5082650;28;20048;-77
2023/09/11 03:39:35;;;;;;;5.78;4.00;;;21.50;96.70;;;;;;5084348;28;20109;-77
2023/09/11 03:42:04;;;;;;;5.40;4.22;;;21.40;96.70;;;;;;5088505;28;20044;-76
2023/09/11 03:44:32;;;;;;;4.85;4.18;;;21.30;96.70;;;;;;5086112;28;20047;-77
2023/09/11 03:47:02;;;;;;;6.88;4.13;;;21.30;96.70;;;;;;5086701;28;20047;-77
2023/09/11 03:49:31;;;;;;;5.68;3.90;;;21.20;96.70;;;;;;5086489;28;20638;-77
2023/09/11 03:51:59;;;;;;;5.68;4.68;;;21.20;96.70;;;;;;5085663;28;20440;-76
2023/09/11 03:54:27;;;;;;;5.82;4.18;;;21.30;96.70;;;;;;5086850;28;20055;-76
2023/09/11 03:56:55;;;;;;;4.68;4.07;;;21.20;96.70;;;;;;5086384;28;20098;-76
2023/09/11 03:59:24;;;;;;;4.50;4.07;;;21.20;96.70;;;;;;5085357;28;20071;-76
2023/09/11 04:01:52;;;;;;;7.10;4.40;;;21.10;96.70;;;;;;5069705;28;20058;-77
2023/09/11 04:04:22;;;;;;;4.20;3.80;;;21.10;96.70;;;;;;5086233;28;20092;-77
2023/09/11 04:06:50;;;;;;;4.47;4.00;;;21.20;96.70;;;;;;5086994;28;20138;-77
2023/09/11 04:09:18;;;;;;;4.53;3.85;;;21.20;96.70;;;;;;5086173;28;20036;-77
2023/09/11 04:11:47;;;;;;;7.10;4.78;;;21.20;96.70;;;;;;5087642;28;20048;-76
2023/09/11 04:14:15;;;;;;;3.95;3.35;;;21.10;96.70;;;;;;5085239;28;20047;-76
2023/09/11 04:16:43;;;;;;;5.60;3.95;;;21.10;96.70;;;;;;5069227;28;20131;-77
2023/09/11 04:19:12;;;;;;;5.63;3.70;;;21.00;96.70;;;;;;5069169;28;20044;-76
2023/09/11 04:21:42;;;;;;;5.20;4.20;;;21.10;96.70;;;;;;5085817;28;20121;-76
2023/09/11 04:24:12;;;;;;;4.55;4.10;;;21.10;96.70;;;;;;5087321;28;20051;-77
2023/09/11 04:26:43;;;;;;;4.70;3.92;;;21.10;96.70;;;;;;5085388;28;20044;-77
2023/09/11 04:29:11;;;;;;;5.20;4.03;;;21.10;96.70;;;;;;5077391;28;20116;-77
2023/09/11 04:31:41;;;;;;;5.47;4.07;;;20.90;96.70;;;;;;5087129;28;20043;-77
2023/09/11 04:34:09;;;;;;;5.43;4.28;;;20.90;96.70;;;;;;5085172;28;20143;-76
2023/09/11 04:36:37;;;;;;;6.22;4.10;;;21.00;96.70;;;;;;5064235;28;20043;-77
2023/09/11 04:39:07;;;;;;;4.90;4.40;;;21.00;96.70;;;;;;5065543;28;20098;-76
2023/09/11 04:41:35;;;;;;;6.57;4.68;;;20.90;96.70;;;;;;5078140;28;20503;-77
2023/09/11 04:44:04;;;;;;;4.22;3.83;;;21.00;96.70;;;;;;5086651;28;20044;-77
2023/09/11 04:46:32;;;;;;;4.30;3.90;;;21.00;96.70;;;;;;5085219;28;20051;-76
2023/09/11 04:49:00;;;;;;;6.65;4.10;;;20.90;96.70;;;;;;5081683;28;20063;-77
2023/09/11 04:51:28;;;;;;;8.10;4.32;;;21.00;96.70;;;;;;5085066;28;20059;-76
2023/09/11 04:53:56;;;;;;;5.03;4.05;;;21.00;96.70;;;;;;5084971;28;20051;-76
2023/09/11 04:56:27;;;;;;;8.35;4.70;;;20.90;96.70;;;;;;5068689;28;20080;-77
2023/09/11 04:58:55;;;;;;;5.18;4.57;;;20.90;96.70;;;;;;5068323;28;20055;-77
2023/09/11 05:01:24;;;;;;;4.40;4.00;;;20.80;96.70;;;;;;5085119;28;20048;-77
2023/09/11 05:03:52;;;;;;;5.95;4.28;;;20.80;96.70;;;;;;5081671;28;20062;-77
2023/09/11 05:06:21;;;;;;;8.38;4.68;;;20.70;96.70;;;;;;5085084;28;20048;-77
2023/09/11 05:08:49;;;;;;;5.57;4.80;;;20.70;96.70;;;;;;5076545;28;20488;-77
2023/09/11 05:11:40;;;;;;;7.93;4.13;;;20.80;96.70;;;;;;5084737;28;20692;-77
2023/09/11 05:14:08;;;;;;;8.15;4.00;;;20.80;96.70;;;;;;5084621;28;20101;-77
2023/09/11 05:16:37;;;;;;;6.25;3.80;;;20.70;96.70;;;;;;5085866;28;20048;-77
2023/09/11 05:19:05;;;;;;;5.07;4.57;;;20.70;96.70;;;;;;5067723;28;21447;-77
2023/09/11 05:21:34;;;;;;;5.03;3.97;;;20.70;96.70;;;;;;5067874;28;20506;-77
2023/09/11 05:24:03;;;;;;;5.63;4.32;;;20.70;96.70;;;;;;5086168;28;20040;-77
2023/09/11 05:26:32;;;;;;;6.70;4.20;;;20.70;96.70;;;;;;5086160;28;20685;-77
2023/09/11 05:29:01;;;;;;;4.20;3.78;;;20.70;96.70;;;;;;5085362;28;20062;-77
2023/09/11 05:31:29;;;;;;;4.85;3.90;;;20.70;96.70;;;;;;5077844;28;20036;-76
2023/09/11 05:33:58;;;;;;;6.60;3.92;;;20.60;96.70;;;;;;5086706;28;20128;-76
2023/09/11 05:36:26;;;;;;;6.20;4.22;;;20.60;96.70;;;;;;5105493;28;20047;-76
2023/09/11 05:38:54;;;;;;;6.57;4.38;;;20.60;96.70;;;;;;5106104;28;20075;-77
2023/09/11 05:41:24;;;;;;;6.97;4.47;;;20.70;96.70;;;;;;5087676;28;20112;-77
2023/09/11 05:43:52;;;;;;;6.18;4.13;;;20.60;96.70;;;;;;5070502;28;20066;-77
2023/09/11 05:46:22;;;;;;;4.82;3.90;;;20.40;96.70;;;;;;5087344;28;20043;-76
2023/09/11 05:48:50;;;;;;;5.55;4.15;;;20.50;96.70;;;;;;5089974;28;20048;-76
2023/09/11 05:51:18;;;;;;;6.93;4.43;;;20.40;96.70;;;;;;5088139;28;20048;-77
2023/09/11 05:53:46;;;;;;;6.55;4.45;;;20.40;96.70;;;;;;5087617;28;20047;-77
2023/09/11 05:56:15;;;;;;;7.00;5.00;;;20.40;96.70;;;;;;5105621;28;20101;-77
2023/09/11 05:58:43;;;;;;;10.10;4.97;;;20.50;96.70;;;;;;5087565;28;20054;-77
2023/09/11 06:01:13;;;;;;;7.03;5.57;;;20.60;96.70;;;;;;5086844;28;20584;-77
2023/09/11 06:03:43;;;;;;;6.97;5.07;;;20.70;96.70;;;;;;5078120;28;20135;-77
2023/09/11 06:06:12;;;;;;;7.07;6.45;;;20.70;96.70;;;;;;5087210;28;20058;-77
2023/09/11 06:08:40;;;;;;;8.65;5.72;;;20.70;96.70;;;;;;5104959;28;20499;-76
2023/09/11 06:11:09;;;;;;;12.52;5.95;;;20.70;96.70;;;;;;5105466;28;20454;-75
2023/09/11 06:13:37;;;;;;;7.38;6.13;;;20.70;96.70;;;;;;5105103;28;20633;-76
2023/09/11 06:16:05;;;;;;;7.78;5.85;;;20.70;96.70;;;;;;5100117;28;20563;-77
2023/09/11 06:18:33;;;;;;;8.45;5.50;;;20.70;96.70;;;;;;5105511;28;20561;-77
2023/09/11 06:21:03;;;;;;;6.95;6.25;;;20.70;96.70;;;;;;5087638;28;20120;-77
2023/09/11 06:23:31;;;;;;;7.65;5.88;;;20.60;96.70;;;;;;5087256;28;20051;-77
2023/09/11 06:26:00;;;;;;;7.35;6.10;;;20.60;96.70;;;;;;5105099;28;20069;-76
2023/09/11 06:28:28;;;;;;;8.10;6.07;;;20.70;96.70;;;;;;5105193;28;20118;-77
2023/09/11 06:30:56;;;;;;;9.40;6.53;;;20.80;96.70;;;;;;5087291;28;20093;-77
2023/09/11 06:33:24;;;;;;;8.00;5.72;;;20.90;96.70;;;;;;5087293;28;20068;-77
2023/09/11 06:35:52;;;;;;;13.15;6.40;;;21.00;96.70;;;;;;5066586;28;20076;-77
2023/09/11 06:38:22;;;;;;;9.95;6.18;;;21.00;96.70;;;;;;5083179;28;20059;-77
2023/09/11 06:40:50;;;;;;;8.25;6.30;;;21.00;96.70;;;;;;5066345;28;20105;-76
2023/09/11 06:43:18;;;;;;;9.98;6.43;;;21.20;96.70;;;;;;5084786;28;20505;-76
2023/09/11 06:45:51;;;;;;;6.57;5.38;;;21.30;96.70;;;;;;5066989;28;20044;-77
2023/09/11 06:48:19;;;;;;;6.18;5.55;;;21.40;96.70;;;;;;5066479;28;20075;-77
2023/09/11 06:50:53;;;;;;;8.70;6.10;;;21.50;96.70;;;;;;5085138;28;20044;-76
2023/09/11 06:53:24;;;;;;;8.25;5.75;;;21.60;96.70;;;;;;5083349;28;20052;-77
2023/09/11 06:55:53;;;;;;;5.38;4.63;;;21.70;96.70;;;;;;5066556;28;20048;-76
2023/09/11 06:58:21;;;;;;;6.85;5.60;;;21.70;96.70;;;;;;5084302;28;20105;-75
2023/09/11 07:00:49;;;;;;;7.55;5.45;;;21.80;96.70;;;;;;5082749;28;20596;-77
2023/09/11 07:03:19;;;;;;;8.75;5.60;;;21.80;96.70;;;;;;5083094;28;20146;-77
2023/09/11 07:05:51;;;;;;;5.63;4.72;;;21.90;96.70;;;;;;5066931;28;20498;-77
2023/09/11 07:08:19;;;;;;;6.63;4.70;;;22.10;96.70;;;;;;5082860;28;20066;-77
2023/09/11 07:10:54;;;;;;;5.32;4.45;;;22.20;96.70;;;;;;5083110;28;20463;-76
2023/09/11 07:13:22;;;;;;;5.30;4.80;;;22.20;96.70;;;;;;5082590;28;20036;-77
2023/09/11 07:15:57;;;;;;;6.13;4.80;;;22.40;96.70;;;;;;5087098;28;20046;-77
2023/09/11 07:18:26;;;;;;;6.90;5.22;;;22.40;96.70;;;;;;5088599;28;20406;-77
2023/09/11 07:20:55;;;;;;;8.27;4.97;;;22.50;96.70;;;;;;5088365;28;20050;-77
2023/09/11 07:23:24;;;;;;;5.57;5.07;;;22.60;96.70;;;;;;5088304;28;20062;-77
2023/09/11 07:25:55;;;;;;;8.02;5.45;;;22.50;96.70;;;;;;5069891;28;20048;-77
2023/09/11 07:28:25;;;;;;;7.38;5.13;;;22.60;96.70;;;;;;5087808;28;20044;-77
2023/09/11 07:30:54;;;;;;;12.27;5.40;;;22.70;96.70;;;;;;5087199;28;20410;-77
2023/09/11 07:33:22;;;;;;;10.65;5.45;;;22.80;96.70;;;;;;5088037;28;20123;-77
2023/09/11 07:35:50;;;;;;;8.88;5.32;;;22.90;96.70;;;;;;5085926;28;20044;-77
2023/09/11 07:38:18;;;;;;;11.02;5.88;;;23.00;96.70;;;;;;5087719;28;20051;-77
2023/09/11 07:40:46;;;;;;;12.10;5.53;;;23.10;96.70;;;;;;5070324;28;20071;-77
2023/09/11 07:43:16;;;;;;;9.90;5.32;;;23.30;96.70;;;;;;5086179;28;20044;-76
2023/09/11 07:45:45;;;;;;;10.05;5.65;;;23.30;96.70;;;;;;5087811;28;20107;-77
2023/09/11 07:48:13;;;;;;;7.15;4.90;;;23.40;96.70;;;;;;5086579;28;20086;-76
2023/09/11 07:50:41;;;;;;;7.15;4.97;;;23.60;96.70;;;;;;5087815;28;20050;-76
2023/09/11 07:53:09;;;;;;;10.70;4.88;;;23.60;96.70;;;;;;5087180;28;20040;-77
2023/09/11 07:55:37;;;;;;;6.05;4.25;;;23.70;96.70;;;;;;5087536;28;20621;-77
2023/09/11 07:58:05;;;;;;;5.88;4.22;;;23.80;96.70;;;;;;5069245;28;20039;-76
2023/09/11 08:00:35;;;;;;;8.43;4.05;;;24.00;96.70;;;;;;5081004;28;20097;-76
2023/09/11 08:03:04;;;;;;;6.05;4.50;;;24.00;96.70;;;;;;5086243;28;20044;-77
2023/09/11 08:05:33;;;;;;;10.38;5.10;;;24.10;96.70;;;;;;5084901;28;20044;-77
2023/09/11 08:08:02;;;;;;;9.55;4.90;;;24.10;96.70;;;;;;5086278;28;20055;-77
2023/09/11 08:10:30;;;;;;;4.40;4.00;;;24.30;96.70;;;;;;5069630;28;20117;-77
2023/09/11 08:12:58;;;;;;;5.75;4.28;;;24.30;96.70;;;;;;5086929;28;20052;-77
2023/09/11 08:15:29;;;;;;;4.00;3.60;;;24.40;96.70;;;;;;5087101;28;20101;-77
2023/09/11 08:17:59;;;;;;;5.95;4.22;;;24.50;96.70;;;;;;5085607;28;20052;-77
2023/09/11 08:20:28;;;;;;;5.72;4.10;;;24.50;96.70;;;;;;5065585;28;20040;-77
2023/09/11 08:22:58;;;;;;;5.28;4.38;;;24.50;96.70;;;;;;5084841;28;20054;-77
2023/09/11 08:25:26;;;;;;;5.70;4.90;;;24.60;96.70;;;;;;5084637;28;20063;-76
2023/09/11 08:27:54;;;;;;;8.05;4.25;;;24.70;96.70;;;;;;5086645;28;20048;-77
2023/09/11 08:30:22;;;;;;;8.05;4.50;;;24.70;96.70;;;;;;5087058;28;20410;-77
2023/09/11 08:32:50;;;;;;;5.97;3.90;;;24.80;96.70;;;;;;5085186;28;20055;-77
2023/09/11 08:35:20;;;;;;;4.82;4.32;;;24.80;96.70;;;;;;5085047;28;20051;-77
2023/09/11 08:37:48;;;;;;;4.85;3.88;;;24.90;96.70;;;;;;5087034;28;20085;-76
2023/09/11 08:40:17;;;;;;;4.78;4.38;;;24.90;96.70;;;;;;5084816;28;20515;-77
2023/09/11 08:42:45;;;;;;;6.45;4.82;;;24.90;96.70;;;;;;5085108;28;20040;-77
2023/09/11 08:45:13;;;;;;;5.22;4.22;;;25.00;96.70;;;;;;5086631;28;20036;-77
2023/09/11 08:47:43;;;;;;;4.80;4.05;;;25.00;96.70;;;;;;5085399;28;20051;-77
2023/09/11 08:50:12;;;;;;;8.73;4.10;;;25.20;96.70;;;;;;5085387;28;20040;-76
2023/09/11 08:52:42;;;;;;;7.45;4.38;;;25.30;96.70;;;;;;5086434;28;20078;-76
2023/09/11 08:55:11;;;;;;;9.13;4.38;;;25.40;96.70;;;;;;5076744;28;20040;-77
2023/09/11 08:57:41;;;;;;;6.90;3.97;;;25.40;96.70;;;;;;5084901;28;20131;-77
2023/09/11 09:00:13;;;;;;;4.38;4.00;;;25.60;96.70;;;;;;5086293;28;20043;-77
2023/09/11 09:02:43;;;;;;;6.95;4.35;;;25.70;96.70;;;;;;5085707;28;20691;-77
2023/09/11 09:05:13;;;;;;;6.95;4.15;;;25.80;96.70;;;;;;5084946;28;20142;-77
2023/09/11 09:07:45;;;;;;;4.88;4.10;;;25.80;96.70;;;;;;5078213;28;20059;-77
2023/09/11 09:10:14;;;;;;;4.50;4.00;;;26.00;96.70;;;;;;5068194;28;20047;-77
2023/09/11 09:12:44;;;;;;;7.80;4.32;;;26.20;96.70;;;;;;5067949;28;20050;-77
2023/09/11 09:15:14;;;;;;;6.15;4.18;;;26.30;96.70;;;;;;5084803;28;20472;-77
2023/09/11 09:17:43;;;;;;;5.57;4.25;;;26.40;96.70;;;;;;5086056;28;20409;-77
2023/09/11 09:20:12;;;;;;;5.20;4.15;;;26.50;96.70;;;;;;5082576;28;20596;-77
2023/09/11 09:22:53;;;;;;;7.25;4.63;;;26.60;96.70;;;;;;5084543;28;20156;-77
2023/09/11 09:25:21;;;;;;;4.07;3.75;;;26.70;96.70;;;;;;5084179;28;20052;-77
2023/09/11 09:27:50;;;;;;;4.00;3.63;;;26.70;96.70;;;;;;5084028;28;20036;-76
2023/09/11 09:30:24;;;;;;;4.97;3.85;;;26.70;96.70;;;;;;5084471;28;20167;-77
2023/09/11 09:32:52;;;;;;;3.97;3.60;;;26.80;96.70;;;;;;5067471;28;20130;-77
2023/09/11 09:35:22;;;;;;;5.55;4.15;;;26.90;96.70;;;;;;5083567;28;20059;-77
2023/09/11 09:37:53;;;;;;;6.32;4.53;;;27.00;96.70;;;;;;5083438;28;20082;-77
2023/09/11 09:40:30;;;;;;;5.47;4.07;;;27.30;96.70;;;;;;5084050;28;20127;-78
2023/09/11 09:43:03;;;;;;;6.00;4.10;;;27.40;96.70;;;;;;5085432;28;20548;-77
2023/09/11 09:45:33;;;;;;;4.78;3.97;;;27.50;96.70;;;;;;5083905;28;20051;-78
2023/09/11 09:48:10;;;;;;;4.72;4.22;;;27.70;96.70;;;;;;5085696;28;20059;-78
2023/09/11 09:50:51;;;;;;;9.25;4.50;;;27.70;96.70;;;;;;5067665;28;20056;-78
2023/09/11 09:53:25;;;;;;;4.68;4.05;;;27.70;96.70;;;;;;5085253;28;20043;-77
2023/09/11 09:55:55;;;;;;;6.07;3.92;;;27.70;96.70;;;;;;5085568;28;20044;-78
2023/09/11 09:58:27;;;;;;;5.40;4.05;;;27.80;96.70;;;;;;5085180;28;20074;-77
2023/09/11 10:01:03;;;;;;;5.85;3.88;;;28.10;96.70;;;;;;5085624;28;20048;-77
2023/09/11 10:03:39;;;;;;;5.65;4.38;;;28.10;96.70;;;;;;5086029;28;20076;-78
2023/09/11 10:06:09;;;;;;;6.68;4.68;;;28.20;96.70;;;;;;5082313;28;20247;-77
2023/09/11 10:08:39;;;;;;;5.32;4.40;;;28.30;96.70;;;;;;5083805;28;20536;-77
2023/09/11 10:11:07;;;;;;;5.82;4.07;;;28.20;96.70;;;;;;5083920;28;20081;-77
2023/09/11 10:13:37;;;;;;;6.25;4.60;;;28.20;96.70;;;;;;5063192;28;20440;-77
2023/09/11 10:16:06;;;;;;;6.50;5.15;;;28.30;96.70;;;;;;5082572;28;20059;-78
2023/09/11 10:18:35;;;;;;;6.80;5.10;;;28.50;96.70;;;;;;5059013;28;20079;-77
2023/09/11 10:21:03;;;;;;;7.68;5.10;;;28.50;96.70;;;;;;5066952;28;20524;-77
2023/09/11 10:23:31;;;;;;;6.25;4.85;;;28.60;96.70;;;;;;5084773;28;20032;-77
2023/09/11 10:26:05;;;;;;;8.13;5.30;;;28.80;96.70;;;;;;5084789;28;20116;-77
2023/09/11 10:28:37;;;;;;;6.93;5.28;;;28.90;96.70;;;;;;5083358;28;20048;-78
2023/09/11 10:31:13;;;;;;;6.05;5.00;;;29.10;96.70;;;;;;5083555;28;20058;-77
2023/09/11 10:33:42;;;;;;;;;;;29.30;96.70;;;;;;5085247;28;20044;-77
2023/09/11 10:36:14;;;;;;;5.00;4.15;;;29.50;96.70;;;;;;5082942;28;19969;-76
2023/09/11 10:38:45;;;;;;;6.45;4.47;;;29.60;96.70;;;;;;5083610;28;20054;-77
2023/09/11 10:41:14;;;;;;;5.60;4.70;;;29.80;96.70;;;;;;5083631;28;20036;-78
2023/09/11 10:43:45;;;;;;;5.32;4.35;;;29.80;96.70;;;;;;5083072;28;20055;-77
2023/09/11 10:46:30;;;;;;;6.72;4.15;;;30.00;96.70;;;;;;5083636;28;20134;-77
2023/09/11 10:48:59;;;;;;;5.70;4.50;;;30.10;96.70;;;;;;5088364;28;20040;-77
2023/09/11 10:51:31;;;;;;;6.38;4.03;;;30.20;96.70;;;;;;5089044;28;20044;-78
2023/09/11 10:53:59;;;;;;;4.72;4.00;;;30.10;96.70;;;;;;5082622;28;20054;-77
2023/09/11 10:56:34;;;;;;;5.65;4.45;;;30.30;96.70;;;;;;5087299;28;20051;-76
2023/09/11 10:59:03;;;;;;;6.25;4.00;;;30.30;96.70;;;;;;5088593;28;20036;-77
2023/09/11 11:01:33;;;;;;;4.55;4.13;;;30.40;96.70;;;;;;5087211;28;20054;-76
2023/09/11 11:04:02;;;;;;;6.70;4.30;;;30.60;96.70;;;;;;5088447;28;20472;-77
2023/09/11 11:06:32;;;;;;;4.70;4.30;;;30.70;96.70;;;;;;5079056;28;20075;-78
2023/09/11 11:09:01;;;;;;;4.05;3.58;;;30.70;96.70;;;;;;5088666;28;20473;-78
2023/09/11 11:11:33;;;;;;;5.75;4.70;;;30.90;96.70;;;;;;5088716;28;21172;-78
2023/09/11 11:14:12;;;;;;;4.78;4.28;;;30.90;96.70;;;;;;5088344;28;20101;-78
2023/09/11 11:16:53;;;;;;;5.78;4.20;;;30.90;96.70;;;;;;5087074;28;20446;-78
2023/09/11 11:19:25;;;;;;;6.88;4.50;;;31.00;96.70;;;;;;5087105;28;20130;-77
2023/09/11 11:21:53;;;;;;;5.53;4.82;;;31.10;96.70;;;;;;5086438;28;20047;-78
2023/09/11 11:24:24;;;;;;;5.53;5.00;;;31.20;96.70;;;;;;5088619;28;20036;-77
2023/09/11 11:26:57;;;;;;;5.28;4.28;;;31.40;96.70;;;;;;5078132;28;20517;-77
2023/09/11 11:29:26;;;;;;;5.07;4.30;;;31.60;96.70;;;;;;5070032;28;20115;-78
2023/09/11 11:31:57;;;;;;;5.28;4.00;;;31.60;96.70;;;;;;5086924;28;20055;-78
2023/09/11 11:34:32;;;;;;;9.35;4.15;;;31.60;96.70;;;;;;5091940;28;20608;-77
2023/09/11 11:37:03;;;;;;;5.25;4.38;;;31.80;96.70;;;;;;5108365;28;20388;-78
2023/09/11 11:39:37;;;;;;;5.00;4.50;;;31.80;96.70;;;;;;5081761;28;20055;-78
2023/09/11 11:42:07;;;;;;;7.25;4.80;;;31.80;96.70;;;;;;5090665;28;20050;-78
2023/09/11 11:44:36;;;;;;;4.55;3.92;;;31.80;96.70;;;;;;5108428;28;20485;-78
2023/09/11 11:47:05;;;;;;;5.82;4.20;;;31.90;96.70;;;;;;5073191;28;20055;-78
2023/09/11 11:49:34;;;;;;;4.30;3.75;;;31.90;96.70;;;;;;5090094;28;20044;-78
2023/09/11 11:52:04;;;;;;;3.80;3.50;;;32.00;96.70;;;;;;5099797;28;20047;-78
2023/09/11 11:54:33;;;;;;;6.00;4.30;;;32.10;96.70;;;;;;5073115;28;20048;-78
2023/09/11 11:57:03;;;;;;;4.30;3.90;;;32.20;96.70;;;;;;5110214;27;20528;-78
2023/09/11 11:59:36;;;;;;;4.18;3.78;;;32.20;96.70;;;;;;5107080;28;20043;-77
2023/09/11 12:02:04;;;;;;;5.15;4.13;;;32.10;96.70;;;;;;5089847;28;20047;-77
2023/09/11 12:04:32;;;;;;;5.30;3.70;;;32.20;96.70;;;;;;5107754;28;20067;-77
2023/09/11 12:07:03;;;;;;;3.90;3.60;;;32.30;96.70;;;;;;5090416;28;20063;-77
2023/09/11 12:09:31;;;;;;;6.40;4.20;;;32.40;96.70;;;;;;5089942;28;20043;-78
2023/09/11 12:11:59;;;;;;;5.13;4.05;;;32.40;96.70;;;;;;5107726;28;20091;-77
2023/09/11 12:14:27;;;;;;;6.45;3.97;;;32.40;96.70;;;;;;5072270;28;20040;-78
2023/09/11 12:16:57;;;;;;;4.65;3.83;;;32.40;96.70;;;;;;5089049;28;20077;-78
2023/09/11 12:19:25;;;;;;;4.20;3.90;;;32.40;96.70;;;;;;5100474;28;20078;-78
2023/09/11 12:21:56;;;;;;;5.53;3.75;;;32.60;96.70;;;;;;5090065;28;20035;-78
2023/09/11 12:24:25;;;;;;;6.47;3.80;;;32.70;96.70;;;;;;5096393;28;20074;-78
2023/09/11 12:26:53;;;;;;;5.85;3.75;;;32.70;96.70;;;;;;5107530;28;20059;-78
2023/09/11 12:29:21;;;;;;;6.82;4.57;;;32.70;96.70;;;;;;5107330;28;20043;-78
2023/09/11 12:31:50;;;;;;;5.07;4.07;;;32.60;96.70;;;;;;5072810;28;20130;-79
2023/09/11 12:34:20;;;;;;;3.90;3.50;;;32.60;96.70;;;;;;5107783;28;20134;-78
2023/09/11 12:36:47;;;;;;;4.13;3.70;;;32.80;96.70;;;;;;5107691;28;20047;-78
2023/09/11 12:39:15;;;;;;;4.20;3.80;;;33.10;96.70;;;;;;5107312;28;20490;-79
2023/09/11 12:41:43;;;;;;;4.78;3.88;;;33.10;96.70;;;;;;5107160;28;20126;-78
2023/09/11 12:44:12;;;;;;;4.10;3.45;;;32.90;96.70;;;;;;5071858;28;20505;-77
2023/09/11 12:46:40;;;;;;;4.13;3.50;;;33.00;96.70;;;;;;5088935;28;20082;-78
2023/09/11 12:49:08;;;;;;;5.15;3.38;;;33.00;96.70;;;;;;5088994;28;20138;-78
2023/09/11 12:51:38;;;;;;;5.75;3.50;;;33.00;96.70;;;;;;5072034;28;20452;-77
2023/09/11 12:54:06;;;;;;;4.20;3.78;;;33.10;95.90;;;;;;5063728;28;20043;-77
2023/09/11 12:56:38;;;;;;;3.67;3.20;;;33.30;94.60;;;;;;5107119;28;20587;-79
2023/09/11 12:59:06;;;;;;;4.20;3.20;;;33.50;94.50;;;;;;5088949;28;20048;-77
2023/09/11 13:01:34;;;;;;;4.65;3.42;;;33.40;93.70;;;;;;5106972;28;20512;-78